Eufaula, Alabama
Current Conditions -  °F | °C
As of 9:58 AM on Tuesday 21 Oct 2014 (Local Time) from KEUF Reporting Station
Clear Clear  
Wind Chill: 69°   Ceiling: Unl
Heat Index: 69°   Visibility: 10mi
Dew Point: 55°   Wind: 0mph
Humidity: 61%   Direction: NA
Pressure: 30.04"   Gusts: NA
Location:  31.9°N, 85.14°W
Report Text: KEUF 211458Z AUTO 00000KT 10SM CLR 21/13 A3004 RMK AO2 SLP170 T02060128 50006
Loading
Personal Weather Stations






























Interactive Weather Map New forecast layout! Learn more

10-Day Weather Forecast

Advertisements
Track Severe Weather on mobile